Time;durP1;ratioP1;P1;durP2;ratioP2;P2;SDS_P1;SDS_P2;PMS_P1;PMS_P2;Temp;Humidity;BMP_temperature;BMP_pressure;BME280_temperature;BME280_humidity;BME280_pressure;Samples;Min_cycle;Max_cycle;Signal;HPM_P1;HPM_P2
2022/07/13 00:01:13;;;;;;;14.77;11.48;;;;;;;22.98;56.02;101936.66;4966528;28;20540;-83
2022/07/13 00:03:38;;;;;;;15.73;11.18;;;;;;;22.93;55.59;101933.47;4967928;28;20042;-82
2022/07/13 00:06:03;;;;;;;13.23;11.20;;;;;;;22.95;55.92;101926.94;4968269;28;20030;-82
2022/07/13 00:08:29;;;;;;;15.50;10.98;;;;;;;22.94;55.78;101937.91;4967594;28;20094;-82
2022/07/13 00:10:54;;;;;;;12.23;10.55;;;;;;;22.90;55.57;101940.00;4967267;28;20504;-82
2022/07/13 00:13:19;;;;;;;14.57;10.63;;;;;;;22.87;55.48;101935.69;4967771;28;20027;-83
2022/07/13 00:15:45;;;;;;;11.30;10.13;;;;;;;22.82;55.36;101926.19;4968767;28;20093;-83
2022/07/13 00:18:10;;;;;;;13.85;9.23;;;;;;;22.78;55.71;101917.50;4984026;28;20022;-82
2022/07/13 00:20:36;;;;;;;14.18;9.40;;;;;;;22.80;56.05;101901.06;4967267;28;20030;-82
2022/07/13 00:23:01;;;;;;;11.93;9.57;;;;;;;22.79;55.76;101881.19;4965433;28;20023;-83
2022/07/13 00:25:26;;;;;;;12.50;9.43;;;;;;;22.80;55.09;101888.34;4968146;28;20035;-82
2022/07/13 00:27:52;;;;;;;11.48;9.77;;;;;;;22.71;54.48;101869.28;4968197;28;20042;-83
2022/07/13 00:30:17;;;;;;;10.05;9.05;;;;;;;22.76;54.79;101876.03;4966643;28;20424;-82
2022/07/13 00:32:42;;;;;;;10.25;8.65;;;;;;;22.70;55.12;101872.97;4966595;28;20031;-83
2022/07/13 00:35:08;;;;;;;13.18;8.52;;;;;;;22.70;54.71;101870.25;4956314;28;20022;-82
2022/07/13 00:37:33;;;;;;;9.77;8.10;;;;;;;22.67;54.73;101876.84;4967755;28;20027;-83
2022/07/13 00:39:58;;;;;;;9.68;8.20;;;;;;;22.68;54.58;101870.41;4967843;28;20023;-82
2022/07/13 00:42:24;;;;;;;11.55;8.85;;;;;;;22.62;54.45;101876.38;4966952;28;20061;-83
2022/07/13 00:44:49;;;;;;;10.32;8.82;;;;;;;22.64;53.72;101877.09;4968264;28;20042;-82
2022/07/13 00:47:16;;;;;;;9.05;7.60;;;;;;;22.65;53.93;101867.09;4967125;28;20034;-83
2022/07/13 00:49:41;;;;;;;9.93;7.68;;;;;;;22.62;54.08;101850.09;4968197;28;20026;-83
2022/07/13 00:52:07;;;;;;;10.13;7.65;;;;;;;22.56;53.99;101845.19;4961471;28;20061;-82
2022/07/13 00:54:33;;;;;;;11.07;7.60;;;;;;;22.57;54.00;101846.03;4966259;28;20117;-82
2022/07/13 00:57:00;;;;;;;12.25;7.43;;;;;;;22.57;54.02;101840.59;4967397;28;20019;-83
2022/07/13 00:59:26;;;;;;;14.57;7.35;;;;;;;22.55;53.92;101839.91;4968068;28;20031;-83
2022/07/13 01:01:52;;;;;;;10.93;7.13;;;;;;;22.55;53.47;101839.91;4967229;28;20042;-83
2022/07/13 01:04:20;;;;;;;8.38;6.88;;;;;;;22.51;53.29;101838.44;4965776;28;20181;-83
2022/07/13 01:06:45;;;;;;;10.48;7.18;;;;;;;22.54;54.03;101835.47;4968144;28;20066;-82
2022/07/13 01:09:11;;;;;;;10.90;6.88;;;;;;;22.55;54.24;101840.75;4968072;28;20023;-82
2022/07/13 01:11:39;;;;;;;9.23;6.40;;;;;;;22.54;53.97;101830.91;4971179;28;20039;-83
2022/07/13 01:14:04;;;;;;;9.65;6.95;;;;;;;22.50;54.34;101820.44;4968500;28;20030;-82
2022/07/13 01:16:29;;;;;;;9.52;6.47;;;;;;;22.49;53.87;101826.84;4971489;28;20069;-82
2022/07/13 01:18:55;;;;;;;9.15;6.75;;;;;;;22.52;53.67;101834.72;4970850;28;20046;-83
2022/07/13 01:21:22;;;;;;;9.85;6.40;;;;;;;22.52;53.74;101834.72;4970044;28;20042;-82
2022/07/13 01:23:47;;;;;;;7.95;5.97;;;;;;;22.53;53.89;101829.19;4971697;28;20022;-82
2022/07/13 01:26:13;;;;;;;10.00;6.00;;;;;;;22.56;53.53;101838.91;4972678;28;20035;-83
2022/07/13 01:28:38;;;;;;;9.45;6.25;;;;;;;22.55;52.98;101837.19;4971780;28;20065;-82
2022/07/13 01:31:05;;;;;;;10.15;6.35;;;;;;;22.52;53.62;101829.28;4985387;28;20034;-82
2022/07/13 01:33:30;;;;;;;8.68;6.03;;;;;;;22.51;53.43;101830.28;4970638;28;20488;-83
2022/07/13 01:35:56;;;;;;;8.05;6.05;;;;;;;22.49;53.08;101826.84;4971083;28;20042;-82
2022/07/13 01:38:22;;;;;;;8.50;5.95;;;;;;;22.41;53.75;101823.94;4970637;28;20037;-83
2022/07/13 01:40:47;;;;;;;8.35;5.57;;;;;;;22.35;54.66;101820.75;4969507;28;20140;-83
2022/07/13 01:43:12;;;;;;;10.27;5.93;;;;;;;22.31;53.72;101819.28;4972281;28;20031;-82
2022/07/13 01:45:38;;;;;;;6.32;5.43;;;;;;;22.34;54.16;101818.19;4970743;28;20031;-82
2022/07/13 01:48:03;;;;;;;7.07;5.88;;;;;;;22.36;52.92;101819.78;4971307;28;20499;-83
2022/07/13 01:50:29;;;;;;;6.13;5.18;;;;;;;22.35;53.04;101826.16;4973029;28;20033;-83
2022/07/13 01:52:55;;;;;;;10.13;4.88;;;;;;;22.30;52.45;101817.56;4971048;28;20055;-82
2022/07/13 01:55:20;;;;;;;6.20;4.30;;;;;;;22.33;52.53;101809.19;4972316;28;20103;-83
2022/07/13 01:57:46;;;;;;;5.10;4.40;;;;;;;22.35;52.40;101822.59;4972262;28;20034;-82
2022/07/13 02:00:14;;;;;;;6.10;4.53;;;;;;;22.33;52.56;101816.47;4970965;28;20039;-82
2022/07/13 02:02:41;;;;;;;5.32;3.92;;;;;;;22.32;52.78;101820.16;4968544;28;20041;-82
2022/07/13 02:05:06;;;;;;;7.78;4.50;;;;;;;22.31;52.09;101830.13;4972542;28;20105;-83
2022/07/13 02:07:32;;;;;;;6.55;5.20;;;;;;;22.30;52.70;101824.84;4971803;28;20106;-82
2022/07/13 02:09:57;;;;;;;8.00;5.03;;;;;;;22.30;52.87;101823.00;4971478;28;20125;-82
2022/07/13 02:12:23;;;;;;;6.78;5.22;;;;;;;22.30;53.23;101814.00;4968365;28;20042;-82
2022/07/13 02:14:48;;;;;;;7.82;5.78;;;;;;;22.29;53.20;101813.16;4969753;28;20039;-82
2022/07/13 02:17:14;;;;;;;7.40;6.10;;;;;;;22.30;53.31;101805.88;4971152;28;20490;-83
2022/07/13 02:19:39;;;;;;;6.75;5.93;;;;;;;22.23;52.07;101799.25;4969779;28;20034;-82
2022/07/13 02:22:04;;;;;;;6.25;5.63;;;;;;;22.25;53.37;101798.13;4969171;28;20412;-82
2022/07/13 02:24:30;;;;;;;5.60;4.88;;;;;;;22.25;52.26;101798.13;4970980;28;20085;-82
2022/07/13 02:26:55;;;;;;;5.70;4.72;;;;;;;22.21;53.35;101787.69;4961540;28;20381;-82
2022/07/13 02:29:20;;;;;;;5.95;4.00;;;;;;;22.18;53.17;101787.94;4967167;28;20424;-82
2022/07/13 02:31:45;;;;;;;4.82;4.22;;;;;;;22.23;52.66;101788.38;4966615;28;20471;-82
2022/07/13 02:34:11;;;;;;;5.07;4.10;;;;;;;22.19;52.80;101782.38;4970573;28;20022;-82
2022/07/13 02:36:36;;;;;;;5.13;4.45;;;;;;;22.16;52.55;101793.50;4969494;28;20547;-81
2022/07/13 02:39:01;;;;;;;5.30;4.40;;;;;;;22.19;52.57;101792.34;4969815;28;20027;-82
2022/07/13 02:41:27;;;;;;;6.10;4.30;;;;;;;22.16;52.65;101788.06;4976453;28;20119;-82
2022/07/13 02:43:52;;;;;;;8.32;4.50;;;;;;;22.16;53.46;101790.78;4977415;28;20361;-81
2022/07/13 02:46:17;;;;;;;5.85;5.30;;;;;;;22.15;52.92;101791.75;4980721;28;20182;-82
2022/07/13 02:48:42;;;;;;;6.93;5.78;;;;;;;22.11;52.95;101790.25;4987644;28;20031;-82
2022/07/13 02:51:08;;;;;;;7.63;5.60;;;;;;;22.11;52.72;101774.00;4987138;28;20074;-81
2022/07/13 02:53:33;;;;;;;8.43;6.43;;;;;;;22.11;53.21;101774.00;4972135;28;20046;-82
2022/07/13 02:55:58;;;;;;;9.13;6.47;;;;;;;22.13;53.33;101775.63;4970638;28;20365;-82
2022/07/13 02:58:25;;;;;;;7.90;5.93;;;;;;;22.12;53.04;101776.63;4970341;28;20117;-83
2022/07/13 03:00:50;;;;;;;7.22;5.55;;;;;;;22.09;53.42;101767.84;4969015;28;20031;-83
2022/07/13 03:03:16;;;;;;;5.65;4.90;;;;;;;22.04;53.78;101754.69;4962257;28;20439;-83
2022/07/13 03:05:41;;;;;;;5.47;4.05;;;;;;;22.06;54.44;101762.69;4969511;28;20492;-83
2022/07/13 03:08:06;;;;;;;5.60;4.30;;;;;;;22.03;53.96;101766.53;4969332;28;20026;-83
2022/07/13 03:10:32;;;;;;;6.72;4.70;;;;;;;21.93;54.44;101767.44;4966664;28;20061;-83
2022/07/13 03:12:58;;;;;;;5.93;5.22;;;;;;;21.92;54.78;101774.69;4969739;28;20030;-83
2022/07/13 03:15:24;;;;;;;6.75;5.43;;;;;;;21.92;54.21;101774.69;4969346;28;20030;-83
2022/07/13 03:17:49;;;;;;;10.85;5.95;;;;;;;21.90;54.52;101787.50;4970082;28;20026;-83
2022/07/13 03:20:14;;;;;;;9.75;6.10;;;;;;;21.91;54.29;101777.56;4982775;28;20585;-83
2022/07/13 03:22:40;;;;;;;7.85;6.13;;;;;;;21.91;54.29;101780.25;4969115;28;20023;-83
2022/07/13 03:25:06;;;;;;;8.88;6.72;;;;;;;21.86;54.61;101777.91;4969979;28;20026;-83
2022/07/13 03:27:31;;;;;;;7.93;6.40;;;;;;;21.87;54.38;101776.94;4968499;28;20061;-83
2022/07/13 03:29:57;;;;;;;7.25;6.05;;;;;;;21.85;54.68;101768.91;4962269;28;20106;-83
2022/07/13 03:32:22;;;;;;;8.18;7.10;;;;;;;21.83;54.86;101754.66;4967822;28;20035;-83
2022/07/13 03:34:47;;;;;;;7.72;5.97;;;;;;;21.84;54.84;101761.78;4969220;28;20113;-83
2022/07/13 03:37:13;;;;;;;11.00;6.38;;;;;;;21.87;54.75;101769.66;4969369;28;20050;-83
2022/07/13 03:39:38;;;;;;;8.13;7.20;;;;;;;21.88;54.44;101771.38;4968243;28;20033;-83
2022/07/13 03:42:04;;;;;;;6.85;6.15;;;;;;;21.85;54.60;101766.22;4968758;28;20032;-83
2022/07/13 03:44:29;;;;;;;6.65;5.78;;;;;;;21.86;55.06;101764.34;4969426;28;20023;-83
2022/07/13 03:46:55;;;;;;;7.15;5.15;;;;;;;21.88;54.18;101775.94;4969801;28;20072;-83
2022/07/13 03:49:20;;;;;;;6.90;4.85;;;;;;;21.86;54.47;101781.50;4968637;28;20362;-83
2022/07/13 03:51:46;;;;;;;6.07;4.63;;;;;;;21.81;54.25;101767.47;4967194;28;20165;-83
2022/07/13 03:54:12;;;;;;;5.53;4.28;;;;;;;21.82;54.40;101766.50;4969007;28;20118;-83
2022/07/13 03:56:39;;;;;;;7.03;4.53;;;;;;;21.81;54.62;101762.03;4969273;28;20441;-83
2022/07/13 03:59:05;;;;;;;6.68;5.05;;;;;;;21.81;54.41;101764.75;4969331;28;20038;-83
2022/07/13 04:01:30;;;;;;;5.57;4.70;;;;;;;21.81;54.27;101758.47;4968414;28;20038;-83
2022/07/13 04:03:55;;;;;;;7.25;4.60;;;;;;;21.82;54.30;101754.75;4967301;28;21006;-83
2022/07/13 04:06:21;;;;;;;6.78;4.50;;;;;;;21.81;54.29;101755.75;4982817;28;20034;-83
2022/07/13 04:08:46;;;;;;;7.68;4.13;;;;;;;21.79;54.27;101755.91;4969215;28;20027;-83
2022/07/13 04:11:11;;;;;;;6.07;4.57;;;;;;;21.80;54.05;101757.63;4966834;28;20473;-83
2022/07/13 04:13:37;;;;;;;4.72;4.30;;;;;;;21.81;53.98;101751.19;4968736;28;20029;-83
2022/07/13 04:16:02;;;;;;;4.80;4.30;;;;;;;21.82;54.48;101752.06;4969228;28;20143;-83
2022/07/13 04:18:27;;;;;;;7.97;4.15;;;;;;;21.85;54.32;101768.06;4966506;28;20069;-83
2022/07/13 04:20:53;;;;;;;5.65;4.10;;;;;;;21.89;54.60;101756.84;4967457;28;20496;-82
2022/07/13 04:23:18;;;;;;;8.40;4.30;;;;;;;21.93;54.49;101762.00;4969209;28;20030;-83
2022/07/13 04:25:44;;;;;;;4.60;4.13;;;;;;;21.96;53.72;101749.06;4968412;28;20451;-83
2022/07/13 04:28:10;;;;;;;4.68;4.10;;;;;;;21.97;53.72;101741.78;4951894;28;20477;-83
2022/07/13 04:30:35;;;;;;;5.15;4.38;;;;;;;22.02;53.31;101745.81;4966056;28;20057;-83
2022/07/13 04:33:01;;;;;;;5.35;3.85;;;;;;;22.04;52.95;101753.84;4966985;28;20146;-83
2022/07/13 04:35:26;;;;;;;4.82;4.15;;;;;;;22.01;52.84;101737.81;4968490;28;20042;-83
2022/07/13 04:37:51;;;;;;;5.10;3.88;;;;;;;22.05;52.74;101737.44;4967528;28;20390;-83
2022/07/13 04:40:16;;;;;;;11.63;4.20;;;;;;;22.06;52.91;101733.72;4965871;28;20429;-83
2022/07/13 04:42:42;;;;;;;6.00;4.05;;;;;;;22.14;52.71;101735.81;4968132;28;20077;-83
2022/07/13 04:45:07;;;;;;;5.32;3.90;;;;;;;22.20;52.37;101739.88;4968695;28;20031;-82
2022/07/13 04:47:33;;;;;;;4.85;4.15;;;;;;;22.21;52.52;101731.59;4968664;28;20022;-82
2022/07/13 04:49:58;;;;;;;4.30;3.65;;;;;;;22.19;52.31;101724.56;4965213;28;20138;-84
2022/07/13 04:52:24;;;;;;;4.95;3.90;;;;;;;22.20;52.35;101731.72;4971935;28;20143;-83
2022/07/13 04:54:50;;;;;;;6.13;3.95;;;;;;;22.19;52.56;101732.69;4971820;28;20405;-83
2022/07/13 04:57:15;;;;;;;7.43;4.05;;;;;;;22.15;52.77;101732.09;4971264;28;20037;-83
2022/07/13 04:59:40;;;;;;;4.30;3.10;;;;;;;22.18;52.82;101739.97;4970371;28;20031;-83
2022/07/13 05:02:07;;;;;;;4.10;3.70;;;;;;;22.17;52.65;101740.97;4972261;28;20077;-83
2022/07/13 05:04:32;;;;;;;6.05;4.10;;;;;;;22.16;52.26;101731.13;4971528;28;20058;-83
2022/07/13 05:06:59;;;;;;;4.43;3.50;;;;;;;22.17;52.79;101730.13;4969945;28;20118;-83
2022/07/13 05:09:24;;;;;;;6.40;3.83;;;;;;;22.23;52.71;101728.72;4970839;28;20516;-83
2022/07/13 05:11:50;;;;;;;6.25;4.15;;;;;;;22.27;52.46;101722.91;4972307;28;20026;-83
2022/07/13 05:14:15;;;;;;;7.05;4.00;;;;;;;22.31;51.86;101729.78;4972832;28;20027;-83
2022/07/13 05:16:40;;;;;;;6.18;4.03;;;;;;;22.30;52.09;101727.22;4970407;28;20496;-83
2022/07/13 05:19:06;;;;;;;5.57;3.72;;;;;;;22.26;52.05;101726.63;4970839;28;20038;-83
2022/07/13 05:21:31;;;;;;;6.05;3.97;;;;;;;22.30;52.29;101735.34;4970396;28;20033;-83
2022/07/13 05:23:57;;;;;;;6.03;3.65;;;;;;;22.36;52.18;101723.97;4985743;28;20373;-82
2022/07/13 05:26:22;;;;;;;5.03;3.70;;;;;;;22.45;51.81;101736.75;4971669;28;20027;-82
2022/07/13 05:28:47;;;;;;;4.88;3.78;;;;;;;22.50;51.53;101725.50;4970633;28;20019;-83
2022/07/13 05:31:13;;;;;;;4.13;3.65;;;;;;;22.53;51.63;101725.19;4970858;28;20109;-82
2022/07/13 05:33:38;;;;;;;5.32;3.53;;;;;;;22.56;51.94;101727.66;4970085;28;20045;-83
2022/07/13 05:36:04;;;;;;;5.65;3.80;;;;;;;22.50;51.85;101728.22;4970923;28;20499;-83
2022/07/13 05:38:30;;;;;;;5.85;3.72;;;;;;;22.48;52.01;101741.03;4970553;28;20035;-82
2022/07/13 05:40:56;;;;;;;7.05;4.20;;;;;;;22.40;52.24;101736.25;4969877;28;20027;-83
2022/07/13 05:43:21;;;;;;;3.88;3.47;;;;;;;22.40;51.78;101746.25;4971123;28;20101;-84
2022/07/13 05:45:46;;;;;;;6.25;4.15;;;;;;;22.41;52.50;101742.56;4970335;28;20388;-83
2022/07/13 05:48:12;;;;;;;6.40;3.90;;;;;;;22.47;51.88;101744.75;4971255;28;20045;-83
2022/07/13 05:50:37;;;;;;;5.53;3.83;;;;;;;22.54;51.79;101744.09;4984588;28;20478;-83
2022/07/13 05:53:02;;;;;;;4.45;3.50;;;;;;;22.63;51.64;101740.56;4971542;28;20038;-83
2022/07/13 05:55:28;;;;;;;5.47;3.75;;;;;;;22.71;51.71;101739.03;4969600;28;20063;-83
2022/07/13 05:57:53;;;;;;;5.18;4.05;;;;;;;22.86;51.38;101743.94;4967502;28;20190;-82
2022/07/13 06:00:18;;;;;;;6.07;3.60;;;;;;;22.95;50.83;101741.44;4972780;28;20023;-82
2022/07/13 06:02:44;;;;;;;5.57;3.60;;;;;;;23.01;51.11;101752.63;4970925;28;20062;-82
2022/07/13 06:05:09;;;;;;;10.65;4.07;;;;;;;23.04;51.06;101756.94;4965213;28;20488;-83
2022/07/13 06:07:35;;;;;;;10.02;3.80;;;;;;;23.00;50.87;101755.47;4976360;28;20035;-84
2022/07/13 06:10:01;;;;;;;8.45;4.20;;;;;;;23.03;52.17;101752.47;4968344;28;20041;-82
2022/07/13 06:12:27;;;;;;;5.35;3.53;;;;;;;23.00;51.07;101761.78;4972411;28;20031;-81
2022/07/13 06:14:53;;;;;;;5.15;3.97;;;;;;;23.09;51.32;101743.78;4970953;28;20583;-82
2022/07/13 06:17:19;;;;;;;4.88;3.50;;;;;;;23.17;50.57;101748.53;4973413;28;20022;-82
2022/07/13 06:19:45;;;;;;;6.57;3.67;;;;;;;23.27;50.17;101753.00;4977753;28;20096;-82
2022/07/13 06:22:10;;;;;;;5.90;3.80;;;;;;;23.28;50.29;101753.84;4988045;28;20023;-82
2022/07/13 06:24:35;;;;;;;4.57;3.38;;;;;;;23.25;50.24;101755.00;4995843;28;20042;-81
2022/07/13 06:27:00;;;;;;;3.92;3.53;;;;;;;23.26;49.89;101756.72;4989961;28;20018;-81
2022/07/13 06:29:27;;;;;;;10.32;3.78;;;;;;;23.28;49.81;101742.97;4999464;28;20031;-81
2022/07/13 06:31:52;;;;;;;6.43;4.18;;;;;;;23.39;49.91;101761.88;4985738;28;20039;-82
2022/07/13 06:34:17;;;;;;;7.00;3.90;;;;;;;23.49;49.64;101757.34;4977913;28;20209;-81
2022/07/13 06:36:43;;;;;;;4.75;3.55;;;;;;;23.61;49.75;101752.63;4974278;28;20037;-82
2022/07/13 06:39:08;;;;;;;5.32;3.80;;;;;;;23.82;49.67;101752.53;4977053;28;20324;-83
2022/07/13 06:41:33;;;;;;;6.93;3.53;;;;;;;23.98;48.69;101741.97;4970946;28;20117;-82
2022/07/13 06:43:59;;;;;;;5.78;3.70;;;;;;;24.09;49.29;101746.41;4974760;28;20149;-82
2022/07/13 06:46:24;;;;;;;6.45;3.78;;;;;;;24.13;48.82;101739.66;4970693;28;20035;-83
2022/07/13 06:48:50;;;;;;;7.90;3.58;;;;;;;24.19;48.31;101743.66;4968826;28;20042;-84
2022/07/13 06:51:15;;;;;;;15.15;4.45;;;;;;;24.24;48.07;101746.81;4976111;28;20113;-81
2022/07/13 06:53:40;;;;;;;26.13;5.55;;;;;;;24.31;47.93;101746.06;4973504;28;20058;-84
2022/07/13 06:56:06;;;;;;;25.33;5.50;;;;;;;24.44;47.65;101747.66;4971333;28;20531;-82
2022/07/13 06:58:31;;;;;;;5.50;3.53;;;;;;;24.56;47.55;101741.91;4988945;28;20031;-84
2022/07/13 07:00:57;;;;;;;6.70;3.58;;;;;;;24.72;47.06;101744.00;4975334;28;20027;-81
2022/07/13 07:03:23;;;;;;;7.40;3.70;;;;;;;24.86;46.60;101737.22;4974307;28;20030;-83
2022/07/13 07:05:49;;;;;;;9.23;4.45;;;;;;;25.08;46.81;101752.31;4970075;28;20082;-83
2022/07/13 07:08:16;;;;;;;8.18;4.47;;;;;;;25.41;45.51;101744.56;4969586;28;20031;-82
2022/07/13 07:10:41;;;;;;;8.18;4.15;;;;;;;25.43;45.17;101740.69;4968532;28;20027;-83
2022/07/13 07:13:07;;;;;;;6.82;3.60;;;;;;;25.48;44.68;101748.41;4973905;28;20041;-83
2022/07/13 07:15:32;;;;;;;8.18;3.58;;;;;;;25.69;44.55;101748.09;4970036;28;20189;-79
2022/07/13 07:17:57;;;;;;;6.40;3.70;;;;;;;25.86;45.16;101750.00;4968092;28;20026;-80
2022/07/13 07:20:23;;;;;;;5.22;3.33;;;;;;;25.82;43.85;101757.66;4968423;28;20087;-81
2022/07/13 07:22:48;;;;;;;4.43;3.72;;;;;;;25.74;43.22;101753.94;4973802;28;20544;-83
2022/07/13 07:25:14;;;;;;;5.68;3.20;;;;;;;25.59;44.16;101750.91;4970035;28;20108;-84
2022/07/13 07:27:41;;;;;;;8.80;3.63;;;;;;;25.68;43.22;101746.41;4973531;28;20042;-82
2022/07/13 07:30:07;;;;;;;5.45;3.58;;;;;;;26.03;43.69;101742.84;4970648;28;20077;-81
2022/07/13 07:32:33;;;;;;;6.90;3.25;;;;;;;26.30;43.04;101741.88;4970651;28;20027;-81
2022/07/13 07:34:59;;;;;;;11.00;3.45;;;;;;;26.40;42.72;101739.88;4968281;28;20045;-82
2022/07/13 07:37:24;;;;;;;6.80;3.15;;;;;;;26.47;43.30;101748.34;4970048;28;20052;-81
2022/07/13 07:39:49;;;;;;;4.15;3.50;;;;;;;26.54;43.13;101750.28;4969348;28;20038;-80
2022/07/13 07:42:15;;;;;;;5.07;3.45;;;;;;;26.60;42.27;101742.44;4972681;28;20022;-81
2022/07/13 07:44:40;;;;;;;5.65;3.67;;;;;;;27.06;41.63;101746.63;4973099;28;20025;-81
2022/07/13 07:47:06;;;;;;;9.45;5.07;;;;;;;27.24;41.90;101732.88;4968045;28;20540;-81
2022/07/13 07:49:31;;;;;;;8.13;5.38;;;;;;;27.31;42.05;101737.53;4973595;28;20026;-82
2022/07/13 07:51:56;;;;;;;9.50;4.70;;;;;;;27.37;41.47;101737.88;4975808;28;20066;-82
2022/07/13 07:54:22;;;;;;;7.80;3.47;;;;;;;27.23;41.33;101744.84;4970446;28;20027;-82
2022/07/13 07:56:48;;;;;;;6.57;3.88;;;;;;;27.22;41.82;101738.53;4971119;28;20026;-83
2022/07/13 07:59:14;;;;;;;6.60;3.70;;;;;;;27.47;42.18;101738.59;4969138;28;20389;-81
2022/07/13 08:01:40;;;;;;;8.32;3.42;;;;;;;27.79;42.40;101740.56;4968099;28;20026;-82
2022/07/13 08:04:05;;;;;;;6.05;3.97;;;;;;;27.87;40.70;101745.19;4971449;28;20030;-81
2022/07/13 08:06:30;;;;;;;6.35;3.90;;;;;;;27.74;41.24;101727.38;4970956;28;20034;-82
2022/07/13 08:08:56;;;;;;;6.95;4.00;;;;;;;27.55;41.50;101725.81;4966757;28;20033;-82
2022/07/13 08:11:21;;;;;;;7.50;4.10;;;;;;;27.37;42.06;101732.41;4972843;28;20409;-81
2022/07/13 08:13:47;;;;;;;7.07;4.03;;;;;;;27.32;43.00;101741.09;4975432;28;20056;-82
2022/07/13 08:16:13;;;;;;;9.02;4.00;;;;;;;27.61;42.85;101735.19;4967956;28;20453;-82
2022/07/13 08:18:39;;;;;;;33.63;5.70;;;;;;;27.81;42.26;101741.25;4972752;28;20490;-80
2022/07/13 08:21:04;;;;;;;6.78;3.58;;;;;;;28.30;41.94;101744.84;4971125;28;20102;-82
2022/07/13 08:26:14;;;;;;;11.93;6.50;;;;;;;28.52;41.05;101747.94;4975948;28;20061;-82
2022/07/13 08:28:39;;;;;;;8.35;5.63;;;;;;;28.41;41.00;101738.19;4975509;28;20057;-82
2022/07/13 08:31:05;;;;;;;10.30;4.50;;;;;;;28.49;41.49;101743.66;4973841;28;20045;-82
2022/07/13 08:38:59;;;;;;;5.35;4.53;;;;;;;28.64;41.31;101743.81;4971119;28;20046;-82
2022/07/13 08:41:24;;;;;;;8.18;4.60;;;;;;;29.59;39.73;101745.69;4972038;28;20034;-82
2022/07/13 08:43:49;;;;;;;6.93;4.35;;;;;;;29.91;39.24;101744.59;4972744;28;20536;-82
2022/07/13 08:46:15;;;;;;;7.55;4.57;;;;;;;29.63;39.31;101749.75;4974446;28;20023;-81
2022/07/13 08:48:43;;;;;;;8.95;5.10;;;;;;;29.61;39.93;101754.59;4976305;28;20038;-81
2022/07/13 08:51:09;;;;;;;8.45;4.80;;;;;;;29.87;39.91;101754.25;4973387;28;20027;-82
2022/07/13 08:53:34;;;;;;;12.88;5.13;;;;;;;30.14;38.99;101739.06;4975007;28;20654;-81
2022/07/13 08:56:00;;;;;;;10.57;4.63;;;;;;;30.31;38.99;101742.56;4974513;28;20122;-81
2022/07/13 08:58:26;;;;;;;8.50;4.65;;;;;;;30.24;39.12;101747.97;4969437;28;20452;-81
2022/07/13 09:00:51;;;;;;;8.60;6.18;;;;;;;30.59;39.26;101749.16;4970879;28;20071;-81
2022/07/13 09:03:16;;;;;;;6.78;4.82;;;;;;;30.87;37.20;101748.53;4971158;28;20031;-81
2022/07/13 09:05:43;;;;;;;5.72;5.18;;;;;;;31.68;36.78;101750.19;4969459;28;20027;-81
2022/07/13 09:08:10;;;;;;;7.68;4.00;;;;;;;33.29;34.41;101767.00;4970387;28;20049;-82
2022/07/13 09:10:56;;;;;;;5.35;4.18;;;;;;;33.37;34.02;101766.81;4970946;28;21914;-80
2022/07/13 09:13:39;;;;;;;5.15;4.30;;;;;;;32.45;35.02;101755.00;4969961;28;20477;-80
2022/07/13 09:16:28;;;;;;;5.07;4.30;;;;;;;31.92;36.07;101762.78;4970559;28;20042;-80
2022/07/13 09:19:00;;;;;;;8.45;4.07;;;;;;;31.21;36.51;101769.94;4967247;28;20031;-80
2022/07/13 09:21:29;;;;;;;5.88;4.10;;;;;;;30.84;36.41;101766.25;4961527;28;20086;-80
2022/07/13 09:23:59;;;;;;;4.60;3.55;;;;;;;30.48;37.55;101749.63;4971408;28;20049;-80
2022/07/13 09:26:41;;;;;;;5.13;3.70;;;;;;;30.22;37.55;101764.63;4971735;28;20084;-80
2022/07/13 09:29:07;;;;;;;5.13;3.70;;;;;;;29.81;38.11;101768.69;4970466;28;20042;-80
2022/07/13 09:31:55;;;;;;;7.88;3.90;;;;;;;29.55;39.15;101780.81;4970313;28;20481;-81
2022/07/13 09:34:46;;;;;;;5.97;4.13;;;;;;;29.37;39.39;101777.47;4980715;28;20065;-80
2022/07/13 09:37:14;;;;;;;7.97;4.25;;;;;;;29.01;39.65;101767.88;4978657;28;20038;-80
2022/07/13 09:40:01;;;;;;;7.72;4.28;;;;;;;28.97;40.38;101772.00;4969010;28;20400;-79
2022/07/13 09:42:30;;;;;;;6.13;3.95;;;;;;;28.88;41.36;101764.78;4970442;28;20085;-81
2022/07/13 09:47:41;;;;;;;6.68;3.92;;;;;;;29.12;38.99;101772.09;4974679;28;20050;-81
2022/07/13 09:50:07;;;;;;;7.13;3.50;;;;;;;29.26;40.47;101763.16;4969011;28;20429;-81
2022/07/13 09:52:33;;;;;;;4.97;3.50;;;;;;;29.53;39.85;101777.41;4971110;28;20112;-81
2022/07/13 09:54:58;;;;;;;5.22;4.05;;;;;;;29.56;38.97;101774.34;4970925;28;20034;-81
2022/07/13 09:57:25;;;;;;;7.18;4.93;;;;;;;29.67;38.77;101779.41;4970528;28;20162;-81
2022/07/13 09:59:52;;;;;;;6.47;4.78;;;;;;;29.78;38.13;101787.22;4972037;28;20030;-81
2022/07/13 10:02:19;;;;;;;5.28;3.83;;;;;;;29.74;38.65;101783.13;4970798;28;20124;-81
2022/07/13 10:04:47;;;;;;;8.13;3.88;;;;;;;29.70;37.95;101786.41;4968332;28;20022;-81
2022/07/13 10:07:13;;;;;;;6.95;3.75;;;;;;;29.84;38.16;101779.28;4978533;28;20034;-80
2022/07/13 10:09:39;;;;;;;4.28;3.83;;;;;;;31.07;35.64;101784.56;4984570;28;20030;-80
2022/07/13 10:12:08;;;;;;;4.85;3.55;;;;;;;33.17;33.12;101780.50;4986520;28;20058;-81
2022/07/13 10:14:34;;;;;;;5.40;3.45;;;;;;;33.22;31.86;101780.75;4983264;28;20047;-80
2022/07/13 10:17:01;;;;;;;4.28;3.60;;;;;;;32.78;32.53;101781.97;4987399;28;20061;-80
2022/07/13 10:19:27;;;;;;;6.25;3.60;;;;;;;31.99;32.80;101782.97;4979330;28;20370;-81
2022/07/13 10:22:04;;;;;;;6.93;3.33;;;;;;;31.37;34.51;101788.16;4971335;28;20114;-80
2022/07/13 10:24:29;;;;;;;7.10;3.15;;;;;;;30.79;34.80;101774.22;4969821;28;20117;-81
2022/07/13 10:27:25;;;;;;;5.45;2.92;;;;;;;30.66;36.05;101782.22;4970440;28;20118;-81
2022/07/13 10:29:55;;;;;;;13.82;3.78;;;;;;;30.33;35.99;101792.69;4970982;28;20096;-82
2022/07/13 10:32:22;;;;;;;6.20;2.90;;;;;;;30.00;36.15;101784.66;4969941;28;20034;-84
2022/07/13 10:34:53;;;;;;;7.18;2.97;;;;;;;29.68;36.60;101799.44;4965394;28;20030;-81
2022/07/13 10:37:19;;;;;;;5.40;2.65;;;;;;;29.55;36.81;101794.53;4968994;28;20034;-80
2022/07/13 10:40:12;;;;;;;4.22;2.80;;;;;;;29.60;37.36;101794.03;4966470;28;20023;-81
2022/07/13 10:42:53;;;;;;;5.15;2.83;;;;;;;29.50;37.49;101799.69;4969897;28;20069;-81
2022/07/13 10:45:34;;;;;;;7.57;2.70;;;;;;;29.51;37.16;101802.28;4969304;28;20093;-80
2022/07/13 10:48:02;;;;;;;2.92;2.10;;;;;;;29.43;36.83;101805.06;4979968;28;20481;-80
2022/07/13 10:50:34;;;;;;;5.88;4.30;;;;;;;29.60;36.30;101799.53;4962708;28;20062;-80
2022/07/13 10:53:00;;;;;;;5.05;3.80;;;;;;;29.61;36.85;101791.09;4950783;28;20126;-80
2022/07/13 10:55:34;;;;;;;5.70;3.00;;;;;;;29.73;36.96;101783.31;4968464;28;20596;-80
2022/07/13 10:58:31;;;;;;;4.05;2.95;;;;;;;30.26;35.87;101781.56;4967102;28;20049;-80
2022/07/13 11:01:07;;;;;;;3.80;3.10;;;;;;;30.26;36.42;101787.91;4968780;28;20042;-80
2022/07/13 11:03:43;;;;;;;6.78;2.78;;;;;;;30.41;36.59;101790.72;4968643;28;20019;-80
2022/07/13 11:06:17;;;;;;;4.47;3.20;;;;;;;30.79;36.42;101798.09;4984645;28;20034;-80
2022/07/13 11:08:43;;;;;;;5.15;3.63;;;;;;;31.09;35.61;101799.81;4967910;28;20035;-80
2022/07/13 11:11:11;;;;;;;4.68;3.70;;;;;;;31.22;34.62;101797.22;4969978;28;20022;-80
2022/07/13 11:13:36;;;;;;;3.55;2.95;;;;;;;31.22;35.05;101807.38;4966794;28;20042;-80
2022/07/13 11:16:02;;;;;;;3.53;2.85;;;;;;;31.43;34.50;101804.72;4966245;28;20711;-80
2022/07/13 11:18:29;;;;;;;4.82;3.00;;;;;;;31.35;33.79;101804.00;4967829;28;20035;-80
2022/07/13 11:20:57;;;;;;;4.15;2.80;;;;;;;31.31;35.12;101799.91;4972398;28;20065;-80
2022/07/13 11:26:40;;;;;;;3.72;3.30;;;;;;;31.35;35.47;101791.13;4976721;28;20090;-80
2022/07/13 11:29:20;;;;;;;4.65;3.28;;;;;;;31.25;35.16;101798.75;4969926;28;20675;-81
2022/07/13 11:31:45;;;;;;;4.43;3.30;;;;;;;31.20;34.70;101798.50;4973775;28;20062;-81
2022/07/13 11:34:11;;;;;;;3.70;3.30;;;;;;;31.09;34.55;101791.56;4966994;28;20058;-80
2022/07/13 11:36:40;;;;;;;3.55;3.10;;;;;;;31.19;34.69;101791.28;4969105;28;20046;-81